Ada, Minnesota
Current Conditions -  °F | °C
As of 6:55 AM on Friday 19 Dec 2014 (Local Time) from K3N8 Reporting Station
Overcast Overcast  
Wind Chill: -11°   Ceiling: 800
Heat Index: -6°   Visibility: 7mi
Dew Point: -7°   Wind: 8mph
Humidity: 91%   Direction: 160°SSE
Pressure: 30.1"   Gusts: NA
Location:  47.3°N, 96.52°W
Report Text: K3N8 191255Z AUTO 16007KT 7SM OVC008 M06/M07 A3010 RMK AO2 T10601073
Loading
Personal Weather Stations






























Interactive Weather Map New forecast layout! Learn more

10-Day Weather Forecast

Advertisements
Track Severe Weather on mobile